sensor_id;sensor_type;location;lat;lon;timestamp;temperature;humidity
15288;DHT22;7745;48.708;9.026;2024-01-30T00:00:24;2.10;99.90
15288;DHT22;7745;48.708;9.026;2024-01-30T00:02:51;2.40;99.90
15288;DHT22;7745;48.708;9.026;2024-01-30T00:05:19;2.10;99.90
15288;DHT22;7745;48.708;9.026;2024-01-30T00:07:46;2.10;99.90
15288;DHT22;7745;48.708;9.026;2024-01-30T00:10:13;2.10;99.90
15288;DHT22;7745;48.708;9.026;2024-01-30T00:12:40;2.00;99.90
15288;DHT22;7745;48.708;9.026;2024-01-30T00:15:07;2.00;99.90
15288;DHT22;7745;48.708;9.026;2024-01-30T00:17:36;2.10;99.90
15288;DHT22;7745;48.708;9.026;2024-01-30T00:20:04;2.10;99.90
15288;DHT22;7745;48.708;9.026;2024-01-30T00:22:33;2.10;99.90
15288;DHT22;7745;48.708;9.026;2024-01-30T00:25:00;2.10;99.90
15288;DHT22;7745;48.708;9.026;2024-01-30T00:27:26;2.00;99.90
15288;DHT22;7745;48.708;9.026;2024-01-30T00:29:53;2.00;99.90
15288;DHT22;7745;48.708;9.026;2024-01-30T00:32:20;2.00;99.90
15288;DHT22;7745;48.708;9.026;2024-01-30T00:34:48;2.00;99.90
15288;DHT22;7745;48.708;9.026;2024-01-30T00:37:15;2.10;99.90
15288;DHT22;7745;48.708;9.026;2024-01-30T00:39:43;2.40;99.90
15288;DHT22;7745;48.708;9.026;2024-01-30T00:42:10;2.10;99.90
15288;DHT22;7745;48.708;9.026;2024-01-30T00:44:37;2.70;99.90
15288;DHT22;7745;48.708;9.026;2024-01-30T00:47:05;2.20;99.90
15288;DHT22;7745;48.708;9.026;2024-01-30T00:49:31;2.10;99.90
15288;DHT22;7745;48.708;9.026;2024-01-30T00:51:58;2.70;99.90
15288;DHT22;7745;48.708;9.026;2024-01-30T00:54:25;2.60;99.90
15288;DHT22;7745;48.708;9.026;2024-01-30T00:56:53;2.70;99.90
15288;DHT22;7745;48.708;9.026;2024-01-30T00:59:20;2.10;99.90
15288;DHT22;7745;48.708;9.026;2024-01-30T01:01:47;2.10;99.90
15288;DHT22;7745;48.708;9.026;2024-01-30T01:04:13;2.50;99.90
15288;DHT22;7745;48.708;9.026;2024-01-30T01:06:40;2.10;99.90
15288;DHT22;7745;48.708;9.026;2024-01-30T01:09:10;2.00;99.90
15288;DHT22;7745;48.708;9.026;2024-01-30T01:11:36;2.10;99.90
15288;DHT22;7745;48.708;9.026;2024-01-30T01:14:05;2.30;99.90
15288;DHT22;7745;48.708;9.026;2024-01-30T01:16:33;2.00;99.90
15288;DHT22;7745;48.708;9.026;2024-01-30T01:19:00;2.70;99.90
15288;DHT22;7745;48.708;9.026;2024-01-30T01:21:28;2.00;99.90
15288;DHT22;7745;48.708;9.026;2024-01-30T01:23:55;2.40;99.90
15288;DHT22;7745;48.708;9.026;2024-01-30T01:26:22;2.00;99.90
15288;DHT22;7745;48.708;9.026;2024-01-30T01:28:49;1.80;99.90
15288;DHT22;7745;48.708;9.026;2024-01-30T01:31:17;1.90;99.90
15288;DHT22;7745;48.708;9.026;2024-01-30T01:33:44;1.90;99.90
15288;DHT22;7745;48.708;9.026;2024-01-30T01:36:11;1.90;99.90
15288;DHT22;7745;48.708;9.026;2024-01-30T01:38:37;1.90;99.90
15288;DHT22;7745;48.708;9.026;2024-01-30T01:41:04;1.90;99.90
15288;DHT22;7745;48.708;9.026;2024-01-30T01:43:31;1.90;99.90
15288;DHT22;7745;48.708;9.026;2024-01-30T01:45:58;1.90;99.90
15288;DHT22;7745;48.708;9.026;2024-01-30T01:48:26;1.80;99.90
15288;DHT22;7745;48.708;9.026;2024-01-30T01:50:53;1.80;99.90
15288;DHT22;7745;48.708;9.026;2024-01-30T01:53:20;1.80;99.90
15288;DHT22;7745;48.708;9.026;2024-01-30T01:55:47;1.80;99.90
15288;DHT22;7745;48.708;9.026;2024-01-30T01:58:14;1.80;99.90
15288;DHT22;7745;48.708;9.026;2024-01-30T02:00:42;1.80;99.90
15288;DHT22;7745;48.708;9.026;2024-01-30T02:03:10;2.40;99.90
15288;DHT22;7745;48.708;9.026;2024-01-30T02:05:39;1.20;99.90
15288;DHT22;7745;48.708;9.026;2024-01-30T02:08:08;2.20;99.90
15288;DHT22;7745;48.708;9.026;2024-01-30T02:10:35;1.60;99.90
15288;DHT22;7745;48.708;9.026;2024-01-30T02:13:02;1.60;99.90
15288;DHT22;7745;48.708;9.026;2024-01-30T02:15:30;1.60;99.90
15288;DHT22;7745;48.708;9.026;2024-01-30T02:17:57;1.60;99.90
15288;DHT22;7745;48.708;9.026;2024-01-30T02:20:24;1.60;99.90
15288;DHT22;7745;48.708;9.026;2024-01-30T02:22:54;1.60;99.90
15288;DHT22;7745;48.708;9.026;2024-01-30T02:25:30;1.60;99.90
15288;DHT22;7745;48.708;9.026;2024-01-30T02:27:57;1.60;99.90
15288;DHT22;7745;48.708;9.026;2024-01-30T02:30:24;1.70;99.90
15288;DHT22;7745;48.708;9.026;2024-01-30T02:32:51;1.60;99.90
15288;DHT22;7745;48.708;9.026;2024-01-30T02:35:17;1.60;99.90
15288;DHT22;7745;48.708;9.026;2024-01-30T02:37:44;1.60;99.90
15288;DHT22;7745;48.708;9.026;2024-01-30T02:40:13;1.10;99.90
15288;DHT22;7745;48.708;9.026;2024-01-30T02:42:39;1.60;99.90
15288;DHT22;7745;48.708;9.026;2024-01-30T02:45:08;1.50;99.90
15288;DHT22;7745;48.708;9.026;2024-01-30T02:47:35;1.40;99.90
15288;DHT22;7745;48.708;9.026;2024-01-30T02:50:02;1.40;99.90
15288;DHT22;7745;48.708;9.026;2024-01-30T02:52:29;1.40;99.90
15288;DHT22;7745;48.708;9.026;2024-01-30T02:54:56;1.40;99.90
15288;DHT22;7745;48.708;9.026;2024-01-30T02:57:24;1.40;99.90
15288;DHT22;7745;48.708;9.026;2024-01-30T02:59:51;1.40;99.90
15288;DHT22;7745;48.708;9.026;2024-01-30T03:02:18;1.40;99.90
15288;DHT22;7745;48.708;9.026;2024-01-30T03:04:44;1.40;99.90
15288;DHT22;7745;48.708;9.026;2024-01-30T03:07:11;2.00;99.90
15288;DHT22;7745;48.708;9.026;2024-01-30T03:09:38;1.30;99.90
15288;DHT22;7745;48.708;9.026;2024-01-30T03:12:06;1.30;99.90
15288;DHT22;7745;48.708;9.026;2024-01-30T03:14:34;1.30;99.90
15288;DHT22;7745;48.708;9.026;2024-01-30T03:17:00;1.30;99.90
15288;DHT22;7745;48.708;9.026;2024-01-30T03:19:28;1.20;99.90
15288;DHT22;7745;48.708;9.026;2024-01-30T03:21:55;1.30;99.90
15288;DHT22;7745;48.708;9.026;2024-01-30T03:24:21;1.30;99.90
15288;DHT22;7745;48.708;9.026;2024-01-30T03:26:48;1.30;99.90
15288;DHT22;7745;48.708;9.026;2024-01-30T03:29:15;1.30;99.90
15288;DHT22;7745;48.708;9.026;2024-01-30T03:31:43;1.20;99.90
15288;DHT22;7745;48.708;9.026;2024-01-30T03:34:09;1.30;99.90
15288;DHT22;7745;48.708;9.026;2024-01-30T03:36:36;1.30;99.90
15288;DHT22;7745;48.708;9.026;2024-01-30T03:39:02;1.30;99.90
15288;DHT22;7745;48.708;9.026;2024-01-30T03:41:30;1.20;99.90
15288;DHT22;7745;48.708;9.026;2024-01-30T03:43:56;1.20;99.90
15288;DHT22;7745;48.708;9.026;2024-01-30T03:46:23;1.20;99.90
15288;DHT22;7745;48.708;9.026;2024-01-30T03:48:52;1.90;99.90
15288;DHT22;7745;48.708;9.026;2024-01-30T03:51:19;1.10;99.90
15288;DHT22;7745;48.708;9.026;2024-01-30T03:53:45;1.10;99.90
15288;DHT22;7745;48.708;9.026;2024-01-30T03:56:12;1.10;99.90
15288;DHT22;7745;48.708;9.026;2024-01-30T03:58:39;1.50;99.90
15288;DHT22;7745;48.708;9.026;2024-01-30T04:01:06;1.00;99.90
15288;DHT22;7745;48.708;9.026;2024-01-30T04:03:33;1.00;99.90
15288;DHT22;7745;48.708;9.026;2024-01-30T04:06:01;1.00;99.90
15288;DHT22;7745;48.708;9.026;2024-01-30T04:08:28;1.40;99.90
15288;DHT22;7745;48.708;9.026;2024-01-30T04:10:55;1.00;99.90
15288;DHT22;7745;48.708;9.026;2024-01-30T04:13:22;1.00;99.90
15288;DHT22;7745;48.708;9.026;2024-01-30T04:15:49;1.00;99.90
15288;DHT22;7745;48.708;9.026;2024-01-30T04:18:15;1.00;99.90
15288;DHT22;7745;48.708;9.026;2024-01-30T04:20:42;1.00;99.90
15288;DHT22;7745;48.708;9.026;2024-01-30T04:23:10;1.00;99.90
15288;DHT22;7745;48.708;9.026;2024-01-30T04:25:37;1.00;99.90
15288;DHT22;7745;48.708;9.026;2024-01-30T04:28:04;1.30;99.90
15288;DHT22;7745;48.708;9.026;2024-01-30T04:30:31;1.00;99.90
15288;DHT22;7745;48.708;9.026;2024-01-30T04:32:58;1.00;99.90
15288;DHT22;7745;48.708;9.026;2024-01-30T04:35:24;0.90;99.90
15288;DHT22;7745;48.708;9.026;2024-01-30T04:37:52;0.90;99.90
15288;DHT22;7745;48.708;9.026;2024-01-30T04:40:21;1.00;99.90
15288;DHT22;7745;48.708;9.026;2024-01-30T04:42:47;1.00;99.90
15288;DHT22;7745;48.708;9.026;2024-01-30T04:45:14;1.00;99.90
15288;DHT22;7745;48.708;9.026;2024-01-30T04:47:41;1.00;99.90
15288;DHT22;7745;48.708;9.026;2024-01-30T04:50:09;0.90;99.90
15288;DHT22;7745;48.708;9.026;2024-01-30T04:52:35;0.90;99.90
15288;DHT22;7745;48.708;9.026;2024-01-30T04:55:02;0.90;99.90
15288;DHT22;7745;48.708;9.026;2024-01-30T04:57:31;0.90;99.90
15288;DHT22;7745;48.708;9.026;2024-01-30T04:59:59;0.90;99.90
15288;DHT22;7745;48.708;9.026;2024-01-30T05:02:26;0.90;99.90
15288;DHT22;7745;48.708;9.026;2024-01-30T05:04:53;0.90;99.90
15288;DHT22;7745;48.708;9.026;2024-01-30T05:07:20;0.90;99.90
15288;DHT22;7745;48.708;9.026;2024-01-30T05:09:47;0.90;99.90
15288;DHT22;7745;48.708;9.026;2024-01-30T05:12:13;0.80;99.90
15288;DHT22;7745;48.708;9.026;2024-01-30T05:14:42;0.90;99.90
15288;DHT22;7745;48.708;9.026;2024-01-30T05:17:08;0.90;99.90
15288;DHT22;7745;48.708;9.026;2024-01-30T05:19:38;0.90;99.90
15288;DHT22;7745;48.708;9.026;2024-01-30T05:22:04;0.90;99.90
15288;DHT22;7745;48.708;9.026;2024-01-30T05:24:31;0.80;99.90
15288;DHT22;7745;48.708;9.026;2024-01-30T05:26:58;0.90;99.90
15288;DHT22;7745;48.708;9.026;2024-01-30T05:29:25;0.80;99.90
15288;DHT22;7745;48.708;9.026;2024-01-30T05:31:53;1.20;99.90
15288;DHT22;7745;48.708;9.026;2024-01-30T05:34:20;0.90;99.90
15288;DHT22;7745;48.708;9.026;2024-01-30T05:36:47;0.80;99.90
15288;DHT22;7745;48.708;9.026;2024-01-30T05:39:14;0.80;99.90
15288;DHT22;7745;48.708;9.026;2024-01-30T05:41:41;0.80;99.90
15288;DHT22;7745;48.708;9.026;2024-01-30T05:44:07;0.80;99.90
15288;DHT22;7745;48.708;9.026;2024-01-30T05:46:35;0.80;99.90
15288;DHT22;7745;48.708;9.026;2024-01-30T05:49:03;0.80;99.90
15288;DHT22;7745;48.708;9.026;2024-01-30T05:51:31;0.80;99.90
15288;DHT22;7745;48.708;9.026;2024-01-30T05:53:58;0.80;99.90
15288;DHT22;7745;48.708;9.026;2024-01-30T05:56:25;0.80;99.90
15288;DHT22;7745;48.708;9.026;2024-01-30T05:58:51;0.80;99.90
15288;DHT22;7745;48.708;9.026;2024-01-30T06:01:18;0.80;99.90
15288;DHT22;7745;48.708;9.026;2024-01-30T06:03:45;0.80;99.90
15288;DHT22;7745;48.708;9.026;2024-01-30T06:06:14;0.80;99.90
15288;DHT22;7745;48.708;9.026;2024-01-30T06:08:40;0.80;99.90
15288;DHT22;7745;48.708;9.026;2024-01-30T06:11:10;0.80;99.90
15288;DHT22;7745;48.708;9.026;2024-01-30T06:13:37;0.80;99.90
15288;DHT22;7745;48.708;9.026;2024-01-30T06:16:04;0.80;99.90
15288;DHT22;7745;48.708;9.026;2024-01-30T06:18:31;0.80;99.90
15288;DHT22;7745;48.708;9.026;2024-01-30T06:20:58;0.80;99.90
15288;DHT22;7745;48.708;9.026;2024-01-30T06:23:26;0.80;99.90
15288;DHT22;7745;48.708;9.026;2024-01-30T06:25:53;0.80;99.90
15288;DHT22;7745;48.708;9.026;2024-01-30T06:28:19;0.80;99.90
15288;DHT22;7745;48.708;9.026;2024-01-30T06:30:46;0.80;99.90
15288;DHT22;7745;48.708;9.026;2024-01-30T06:33:13;1.10;99.90
15288;DHT22;7745;48.708;9.026;2024-01-30T06:35:40;0.80;99.90
15288;DHT22;7745;48.708;9.026;2024-01-30T06:38:07;0.80;99.90
15288;DHT22;7745;48.708;9.026;2024-01-30T06:40:36;0.80;99.90
15288;DHT22;7745;48.708;9.026;2024-01-30T06:43:04;0.70;99.90
15288;DHT22;7745;48.708;9.026;2024-01-30T06:45:31;0.70;99.90
15288;DHT22;7745;48.708;9.026;2024-01-30T06:47:58;0.70;99.90
15288;DHT22;7745;48.708;9.026;2024-01-30T06:50:25;0.70;99.90
15288;DHT22;7745;48.708;9.026;2024-01-30T06:52:52;0.70;99.90
15288;DHT22;7745;48.708;9.026;2024-01-30T06:55:19;0.50;99.90
15288;DHT22;7745;48.708;9.026;2024-01-30T06:57:47;1.40;99.90
15288;DHT22;7745;48.708;9.026;2024-01-30T07:00:18;0.80;99.90
15288;DHT22;7745;48.708;9.026;2024-01-30T07:02:53;0.90;99.90
15288;DHT22;7745;48.708;9.026;2024-01-30T07:05:22;0.70;99.90
15288;DHT22;7745;48.708;9.026;2024-01-30T07:07:50;1.30;99.90
15288;DHT22;7745;48.708;9.026;2024-01-30T07:10:17;0.80;99.90
15288;DHT22;7745;48.708;9.026;2024-01-30T07:12:43;0.80;99.90
15288;DHT22;7745;48.708;9.026;2024-01-30T07:15:12;0.80;99.90
15288;DHT22;7745;48.708;9.026;2024-01-30T07:17:45;0.70;99.90
15288;DHT22;7745;48.708;9.026;2024-01-30T07:20:12;0.90;99.90
15288;DHT22;7745;48.708;9.026;2024-01-30T07:22:39;0.90;99.90
15288;DHT22;7745;48.708;9.026;2024-01-30T07:25:07;1.00;99.90
15288;DHT22;7745;48.708;9.026;2024-01-30T07:27:34;1.00;99.90
15288;DHT22;7745;48.708;9.026;2024-01-30T07:30:02;1.00;99.90
15288;DHT22;7745;48.708;9.026;2024-01-30T07:32:30;1.10;99.90
15288;DHT22;7745;48.708;9.026;2024-01-30T07:34:57;1.10;99.90
15288;DHT22;7745;48.708;9.026;2024-01-30T07:37:24;1.20;99.90
15288;DHT22;7745;48.708;9.026;2024-01-30T07:39:51;1.20;99.90
15288;DHT22;7745;48.708;9.026;2024-01-30T07:42:39;1.20;99.90
15288;DHT22;7745;48.708;9.026;2024-01-30T07:45:09;1.30;99.90
15288;DHT22;7745;48.708;9.026;2024-01-30T07:47:46;1.30;99.90
15288;DHT22;7745;48.708;9.026;2024-01-30T07:50:23;1.40;99.90
15288;DHT22;7745;48.708;9.026;2024-01-30T07:52:52;1.40;99.90
15288;DHT22;7745;48.708;9.026;2024-01-30T07:55:28;1.80;99.90
15288;DHT22;7745;48.708;9.026;2024-01-30T07:57:57;1.30;99.90
15288;DHT22;7745;48.708;9.026;2024-01-30T08:00:24;1.60;99.90
15288;DHT22;7745;48.708;9.026;2024-01-30T08:02:52;1.70;99.90
15288;DHT22;7745;48.708;9.026;2024-01-30T08:05:19;1.70;99.90
15288;DHT22;7745;48.708;9.026;2024-01-30T08:07:48;1.80;99.90
15288;DHT22;7745;48.708;9.026;2024-01-30T08:10:15;1.90;99.90
15288;DHT22;7745;48.708;9.026;2024-01-30T08:12:43;2.00;99.90
15288;DHT22;7745;48.708;9.026;2024-01-30T08:15:11;2.10;99.90
15288;DHT22;7745;48.708;9.026;2024-01-30T08:17:38;2.10;99.90
15288;DHT22;7745;48.708;9.026;2024-01-30T08:20:08;2.20;99.90
15288;DHT22;7745;48.708;9.026;2024-01-30T08:22:38;2.30;99.90
15288;DHT22;7745;48.708;9.026;2024-01-30T08:25:06;2.40;99.90
15288;DHT22;7745;48.708;9.026;2024-01-30T08:27:33;2.50;99.90
15288;DHT22;7745;48.708;9.026;2024-01-30T08:30:01;2.70;99.90
15288;DHT22;7745;48.708;9.026;2024-01-30T08:32:28;2.80;99.90
15288;DHT22;7745;48.708;9.026;2024-01-30T08:34:54;2.90;99.90
15288;DHT22;7745;48.708;9.026;2024-01-30T08:37:22;3.00;99.90
15288;DHT22;7745;48.708;9.026;2024-01-30T08:39:49;3.10;99.90
15288;DHT22;7745;48.708;9.026;2024-01-30T08:42:16;3.10;99.90
15288;DHT22;7745;48.708;9.026;2024-01-30T08:44:44;3.20;99.90
15288;DHT22;7745;48.708;9.026;2024-01-30T08:47:10;3.30;99.90
15288;DHT22;7745;48.708;9.026;2024-01-30T08:49:37;3.30;99.90
15288;DHT22;7745;48.708;9.026;2024-01-30T08:52:04;3.40;99.90
15288;DHT22;7745;48.708;9.026;2024-01-30T08:54:33;3.50;99.90
15288;DHT22;7745;48.708;9.026;2024-01-30T08:57:00;3.50;99.90
15288;DHT22;7745;48.708;9.026;2024-01-30T08:59:27;3.60;99.90
15288;DHT22;7745;48.708;9.026;2024-01-30T09:01:54;3.70;99.90
15288;DHT22;7745;48.708;9.026;2024-01-30T09:04:23;3.80;99.90
15288;DHT22;7745;48.708;9.026;2024-01-30T09:06:50;3.90;99.90
15288;DHT22;7745;48.708;9.026;2024-01-30T09:09:17;4.00;99.90
15288;DHT22;7745;48.708;9.026;2024-01-30T09:11:46;4.10;99.90
15288;DHT22;7745;48.708;9.026;2024-01-30T09:14:12;4.20;99.90
15288;DHT22;7745;48.708;9.026;2024-01-30T09:16:39;4.40;99.90
15288;DHT22;7745;48.708;9.026;2024-01-30T09:19:06;4.90;99.90
15288;DHT22;7745;48.708;9.026;2024-01-30T09:21:33;4.60;99.90
15288;DHT22;7745;48.708;9.026;2024-01-30T09:24:02;5.10;99.90
15288;DHT22;7745;48.708;9.026;2024-01-30T09:26:32;4.90;99.90
15288;DHT22;7745;48.708;9.026;2024-01-30T09:29:01;5.10;99.90
15288;DHT22;7745;48.708;9.026;2024-01-30T09:31:27;5.30;99.90
15288;DHT22;7745;48.708;9.026;2024-01-30T09:33:54;5.40;99.90
15288;DHT22;7745;48.708;9.026;2024-01-30T09:36:21;5.50;99.90
15288;DHT22;7745;48.708;9.026;2024-01-30T09:38:48;5.60;99.90
15288;DHT22;7745;48.708;9.026;2024-01-30T09:41:15;6.10;99.90
15288;DHT22;7745;48.708;9.026;2024-01-30T09:43:47;5.90;99.90
15288;DHT22;7745;48.708;9.026;2024-01-30T09:46:17;6.00;99.90
15288;DHT22;7745;48.708;9.026;2024-01-30T09:48:46;6.10;99.90
15288;DHT22;7745;48.708;9.026;2024-01-30T09:51:14;6.20;99.90
15288;DHT22;7745;48.708;9.026;2024-01-30T09:53:42;6.20;99.90
15288;DHT22;7745;48.708;9.026;2024-01-30T09:56:09;6.30;99.90
15288;DHT22;7745;48.708;9.026;2024-01-30T09:58:36;6.40;99.90
15288;DHT22;7745;48.708;9.026;2024-01-30T10:01:05;6.50;99.90
15288;DHT22;7745;48.708;9.026;2024-01-30T10:03:33;6.60;99.90
15288;DHT22;7745;48.708;9.026;2024-01-30T10:06:01;6.90;99.90
15288;DHT22;7745;48.708;9.026;2024-01-30T10:08:28;6.80;99.90
15288;DHT22;7745;48.708;9.026;2024-01-30T10:10:55;6.90;99.90
15288;DHT22;7745;48.708;9.026;2024-01-30T10:13:22;7.00;99.90
15288;DHT22;7745;48.708;9.026;2024-01-30T10:15:48;7.20;99.90
15288;DHT22;7745;48.708;9.026;2024-01-30T10:18:16;7.50;99.90
15288;DHT22;7745;48.708;9.026;2024-01-30T10:20:44;7.40;99.90
15288;DHT22;7745;48.708;9.026;2024-01-30T10:23:11;7.50;99.90
15288;DHT22;7745;48.708;9.026;2024-01-30T10:25:38;7.70;99.90
15288;DHT22;7745;48.708;9.026;2024-01-30T10:28:05;8.00;99.90
15288;DHT22;7745;48.708;9.026;2024-01-30T10:30:32;7.90;99.90
15288;DHT22;7745;48.708;9.026;2024-01-30T10:32:59;8.00;99.90
15288;DHT22;7745;48.708;9.026;2024-01-30T10:35:26;8.30;99.90
15288;DHT22;7745;48.708;9.026;2024-01-30T10:37:56;8.50;99.90
15288;DHT22;7745;48.708;9.026;2024-01-30T10:40:27;8.30;99.90
15288;DHT22;7745;48.708;9.026;2024-01-30T10:42:55;8.40;99.90
15288;DHT22;7745;48.708;9.026;2024-01-30T10:45:22;8.80;99.90
15288;DHT22;7745;48.708;9.026;2024-01-30T10:47:50;8.60;99.90
15288;DHT22;7745;48.708;9.026;2024-01-30T10:50:18;8.80;99.90
15288;DHT22;7745;48.708;9.026;2024-01-30T10:52:46;9.00;99.90
15288;DHT22;7745;48.708;9.026;2024-01-30T10:55:16;8.80;99.90
15288;DHT22;7745;48.708;9.026;2024-01-30T10:57:44;8.80;99.90
15288;DHT22;7745;48.708;9.026;2024-01-30T11:00:13;9.00;99.90
15288;DHT22;7745;48.708;9.026;2024-01-30T11:02:43;9.00;99.90
15288;DHT22;7745;48.708;9.026;2024-01-30T11:05:13;9.10;99.90
15288;DHT22;7745;48.708;9.026;2024-01-30T11:13:37;9.30;99.90
15288;DHT22;7745;48.708;9.026;2024-01-30T11:16:05;9.30;99.90
15288;DHT22;7745;48.708;9.026;2024-01-30T11:18:32;9.40;99.90
15288;DHT22;7745;48.708;9.026;2024-01-30T11:21:08;9.50;99.90
15288;DHT22;7745;48.708;9.026;2024-01-30T11:24:04;9.60;99.90
15288;DHT22;7745;48.708;9.026;2024-01-30T11:26:33;9.60;99.90
15288;DHT22;7745;48.708;9.026;2024-01-30T11:29:03;9.80;99.90
15288;DHT22;7745;48.708;9.026;2024-01-30T11:31:30;10.20;99.90
15288;DHT22;7745;48.708;9.026;2024-01-30T11:33:57;9.90;99.90
15288;DHT22;7745;48.708;9.026;2024-01-30T11:36:25;9.80;99.90
15288;DHT22;7745;48.708;9.026;2024-01-30T11:38:53;9.90;99.90
15288;DHT22;7745;48.708;9.026;2024-01-30T11:41:20;10.00;99.90
15288;DHT22;7745;48.708;9.026;2024-01-30T11:43:53;10.10;99.90
15288;DHT22;7745;48.708;9.026;2024-01-30T11:46:20;10.10;99.90
15288;DHT22;7745;48.708;9.026;2024-01-30T11:48:47;10.20;99.90
15288;DHT22;7745;48.708;9.026;2024-01-30T11:51:13;10.20;99.90
15288;DHT22;7745;48.708;9.026;2024-01-30T11:53:41;10.30;99.90
15288;DHT22;7745;48.708;9.026;2024-01-30T11:56:08;10.30;99.90
15288;DHT22;7745;48.708;9.026;2024-01-30T11:58:35;10.30;99.90
15288;DHT22;7745;48.708;9.026;2024-01-30T12:01:04;10.40;99.90
15288;DHT22;7745;48.708;9.026;2024-01-30T12:03:31;10.40;99.90
15288;DHT22;7745;48.708;9.026;2024-01-30T12:05:58;10.40;99.90
15288;DHT22;7745;48.708;9.026;2024-01-30T12:08:25;10.90;99.90
15288;DHT22;7745;48.708;9.026;2024-01-30T12:10:59;10.50;99.90
15288;DHT22;7745;48.708;9.026;2024-01-30T12:13:28;10.80;99.90
15288;DHT22;7745;48.708;9.026;2024-01-30T12:15:55;10.60;99.90
15288;DHT22;7745;48.708;9.026;2024-01-30T12:18:24;10.80;99.90
15288;DHT22;7745;48.708;9.026;2024-01-30T12:20:57;10.60;99.90
15288;DHT22;7745;48.708;9.026;2024-01-30T12:23:27;10.80;99.90
15288;DHT22;7745;48.708;9.026;2024-01-30T12:25:54;10.70;99.90
15288;DHT22;7745;48.708;9.026;2024-01-30T12:28:26;11.00;99.90
15288;DHT22;7745;48.708;9.026;2024-01-30T12:31:01;10.90;99.90
15288;DHT22;7745;48.708;9.026;2024-01-30T12:33:31;11.10;99.90
15288;DHT22;7745;48.708;9.026;2024-01-30T12:36:01;11.00;99.90
15288;DHT22;7745;48.708;9.026;2024-01-30T12:38:35;11.00;99.90
15288;DHT22;7745;48.708;9.026;2024-01-30T12:41:02;11.00;99.90
15288;DHT22;7745;48.708;9.026;2024-01-30T12:43:32;11.00;99.90
15288;DHT22;7745;48.708;9.026;2024-01-30T12:45:59;11.00;99.90
15288;DHT22;7745;48.708;9.026;2024-01-30T12:48:26;11.00;99.90
15288;DHT22;7745;48.708;9.026;2024-01-30T12:50:56;11.10;99.90
15288;DHT22;7745;48.708;9.026;2024-01-30T12:53:26;11.10;99.90
15288;DHT22;7745;48.708;9.026;2024-01-30T12:55:53;11.10;99.90
15288;DHT22;7745;48.708;9.026;2024-01-30T12:58:20;11.30;99.90
15288;DHT22;7745;48.708;9.026;2024-01-30T13:00:47;11.30;99.90
15288;DHT22;7745;48.708;9.026;2024-01-30T13:03:14;11.50;99.90
15288;DHT22;7745;48.708;9.026;2024-01-30T13:05:41;11.40;99.90
15288;DHT22;7745;48.708;9.026;2024-01-30T13:08:09;11.40;99.90
15288;DHT22;7745;48.708;9.026;2024-01-30T13:10:36;11.60;99.90
15288;DHT22;7745;48.708;9.026;2024-01-30T13:13:03;11.40;99.90
15288;DHT22;7745;48.708;9.026;2024-01-30T13:15:30;11.40;99.90
15288;DHT22;7745;48.708;9.026;2024-01-30T13:17:56;11.90;99.90
15288;DHT22;7745;48.708;9.026;2024-01-30T13:20:25;11.60;99.90
15288;DHT22;7745;48.708;9.026;2024-01-30T13:22:51;11.80;99.90
15288;DHT22;7745;48.708;9.026;2024-01-30T13:25:23;11.60;99.90
15288;DHT22;7745;48.708;9.026;2024-01-30T13:28:03;11.50;99.90
15288;DHT22;7745;48.708;9.026;2024-01-30T13:30:30;11.60;99.90
15288;DHT22;7745;48.708;9.026;2024-01-30T13:32:57;11.60;99.90
15288;DHT22;7745;48.708;9.026;2024-01-30T13:35:23;11.60;99.90
15288;DHT22;7745;48.708;9.026;2024-01-30T13:37:50;11.90;99.90
15288;DHT22;7745;48.708;9.026;2024-01-30T13:40:17;11.90;99.90
15288;DHT22;7745;48.708;9.026;2024-01-30T13:42:45;11.70;99.90
15288;DHT22;7745;48.708;9.026;2024-01-30T13:45:13;11.60;99.90
15288;DHT22;7745;48.708;9.026;2024-01-30T13:47:40;11.60;99.90
15288;DHT22;7745;48.708;9.026;2024-01-30T13:50:07;11.60;99.90
15288;DHT22;7745;48.708;9.026;2024-01-30T13:52:36;11.60;99.90
15288;DHT22;7745;48.708;9.026;2024-01-30T13:55:03;11.50;99.90
15288;DHT22;7745;48.708;9.026;2024-01-30T13:57:30;11.50;99.90
15288;DHT22;7745;48.708;9.026;2024-01-30T14:00:02;11.60;99.90
15288;DHT22;7745;48.708;9.026;2024-01-30T14:02:30;11.60;99.90
15288;DHT22;7745;48.708;9.026;2024-01-30T14:04:57;11.60;99.90
15288;DHT22;7745;48.708;9.026;2024-01-30T14:07:24;11.60;99.90
15288;DHT22;7745;48.708;9.026;2024-01-30T14:09:51;11.60;99.90
15288;DHT22;7745;48.708;9.026;2024-01-30T14:12:18;11.60;99.90
15288;DHT22;7745;48.708;9.026;2024-01-30T14:14:45;11.60;99.90
15288;DHT22;7745;48.708;9.026;2024-01-30T14:17:13;11.90;99.90
15288;DHT22;7745;48.708;9.026;2024-01-30T14:19:40;11.80;99.90
15288;DHT22;7745;48.708;9.026;2024-01-30T14:22:06;11.60;99.90
15288;DHT22;7745;48.708;9.026;2024-01-30T14:24:33;11.60;99.90
15288;DHT22;7745;48.708;9.026;2024-01-30T14:27:00;11.60;99.90
15288;DHT22;7745;48.708;9.026;2024-01-30T14:29:27;11.60;99.90
15288;DHT22;7745;48.708;9.026;2024-01-30T14:31:54;11.90;99.90
15288;DHT22;7745;48.708;9.026;2024-01-30T14:34:23;11.50;99.90
15288;DHT22;7745;48.708;9.026;2024-01-30T14:36:50;11.50;99.90
15288;DHT22;7745;48.708;9.026;2024-01-30T14:39:17;11.30;99.90
15288;DHT22;7745;48.708;9.026;2024-01-30T14:41:44;11.30;99.90
15288;DHT22;7745;48.708;9.026;2024-01-30T14:44:10;11.30;99.90
15288;DHT22;7745;48.708;9.026;2024-01-30T14:46:37;11.30;99.90
15288;DHT22;7745;48.708;9.026;2024-01-30T14:49:04;11.20;99.90
15288;DHT22;7745;48.708;9.026;2024-01-30T14:51:33;11.20;99.90
15288;DHT22;7745;48.708;9.026;2024-01-30T14:54:01;11.20;99.90
15288;DHT22;7745;48.708;9.026;2024-01-30T14:56:28;11.00;99.90
15288;DHT22;7745;48.708;9.026;2024-01-30T14:58:55;11.00;99.90
15288;DHT22;7745;48.708;9.026;2024-01-30T15:01:22;10.90;99.90
15288;DHT22;7745;48.708;9.026;2024-01-30T15:03:48;11.00;99.90
15288;DHT22;7745;48.708;9.026;2024-01-30T15:06:17;10.80;99.90
15288;DHT22;7745;48.708;9.026;2024-01-30T15:08:45;10.70;99.90
15288;DHT22;7745;48.708;9.026;2024-01-30T15:11:12;10.70;99.90
15288;DHT22;7745;48.708;9.026;2024-01-30T15:13:39;10.60;99.90
15288;DHT22;7745;48.708;9.026;2024-01-30T15:16:05;10.50;99.90
15288;DHT22;7745;48.708;9.026;2024-01-30T15:18:33;10.50;99.90
15288;DHT22;7745;48.708;9.026;2024-01-30T15:21:00;10.40;99.90
15288;DHT22;7745;48.708;9.026;2024-01-30T15:23:26;10.30;99.90
15288;DHT22;7745;48.708;9.026;2024-01-30T15:25:55;10.40;99.90
15288;DHT22;7745;48.708;9.026;2024-01-30T15:28:34;10.20;99.90
15288;DHT22;7745;48.708;9.026;2024-01-30T15:31:01;10.10;99.90
15288;DHT22;7745;48.708;9.026;2024-01-30T15:33:28;10.00;99.90
15288;DHT22;7745;48.708;9.026;2024-01-30T15:35:56;9.90;99.90
15288;DHT22;7745;48.708;9.026;2024-01-30T15:38:23;10.10;99.90
15288;DHT22;7745;48.708;9.026;2024-01-30T15:40:49;9.80;99.90
15288;DHT22;7745;48.708;9.026;2024-01-30T15:43:18;9.70;99.90
15288;DHT22;7745;48.708;9.026;2024-01-30T15:45:44;9.70;99.90
15288;DHT22;7745;48.708;9.026;2024-01-30T15:48:11;9.60;99.90
15288;DHT22;7745;48.708;9.026;2024-01-30T15:50:38;9.50;99.90
15288;DHT22;7745;48.708;9.026;2024-01-30T15:53:05;9.50;99.90
15288;DHT22;7745;48.708;9.026;2024-01-30T15:55:32;9.50;99.90
15288;DHT22;7745;48.708;9.026;2024-01-30T15:58:00;9.50;99.90
15288;DHT22;7745;48.708;9.026;2024-01-30T16:00:28;9.40;99.90
15288;DHT22;7745;48.708;9.026;2024-01-30T16:02:55;9.30;99.90
15288;DHT22;7745;48.708;9.026;2024-01-30T16:05:23;9.30;99.90